createdAt,value
2022-09-18T00:02:16.667Z,2.43
2022-09-18T00:04:44.289Z,2.50
2022-09-18T00:07:11.731Z,2.80
2022-09-18T00:09:45.608Z,2.10
2022-09-18T00:12:13.124Z,2.30
2022-09-18T00:14:40.585Z,2.83
2022-09-18T00:17:14.608Z,2.43
2022-09-18T00:19:49.146Z,2.50
2022-09-18T00:22:22.609Z,2.60
2022-09-18T00:24:50.140Z,2.83
2022-09-18T00:27:17.649Z,2.60
2022-09-18T00:29:51.596Z,2.60
2022-09-18T00:32:19.177Z,2.23
2022-09-18T00:34:46.648Z,2.70
2022-09-18T00:37:20.602Z,2.20
2022-09-18T00:39:48.110Z,2.23
2022-09-18T00:42:18.865Z,2.23
2022-09-18T00:44:56.421Z,2.40
2022-09-18T00:47:29.857Z,2.20
2022-09-18T00:50:17.594Z,2.30
2022-09-18T00:52:57.010Z,2.40
2022-09-18T00:55:40.596Z,2.13
2022-09-18T00:58:08.354Z,2.57
2022-09-18T01:00:36.080Z,2.43
2022-09-18T01:03:10.592Z,2.43
2022-09-18T01:05:56.869Z,2.27
2022-09-18T01:08:57.611Z,2.43
2022-09-18T01:11:33.558Z,2.57
2022-09-18T01:14:32.655Z,2.30
2022-09-18T01:17:06.716Z,2.40
2022-09-18T01:20:07.576Z,2.60
2022-09-18T01:22:47.969Z,2.30
2022-09-18T01:25:55.600Z,2.60
2022-09-18T01:28:43.837Z,2.40
2022-09-18T01:31:29.646Z,2.63
2022-09-18T01:34:12.454Z,2.63
2022-09-18T01:36:52.632Z,2.67
2022-09-18T01:39:46.291Z,2.40
2022-09-18T01:42:22.590Z,2.30
2022-09-18T01:44:54.245Z,2.30
2022-09-18T01:47:32.649Z,2.60
2022-09-18T01:50:01.689Z,1.90
2022-09-18T01:52:46.619Z,2.47
2022-09-18T01:55:22.269Z,1.90
2022-09-18T01:58:01.663Z,2.03
2022-09-18T02:00:31.880Z,1.97
2022-09-18T02:03:20.610Z,1.93
2022-09-18T02:06:02.033Z,1.97
2022-09-18T02:08:56.643Z,1.97
2022-09-18T02:11:25.056Z,2.10
2022-09-18T02:14:21.610Z,2.50
2022-09-18T02:17:03.781Z,2.40
2022-09-18T02:20:00.611Z,2.23
2022-09-18T02:22:32.105Z,2.13
2022-09-18T02:25:11.603Z,2.90
2022-09-18T02:27:39.975Z,2.87
2022-09-18T02:30:08.827Z,3.67
2022-09-18T02:32:44.721Z,3.43
2022-09-18T02:35:13.036Z,3.30
2022-09-18T02:37:59.611Z,3.60
2022-09-18T02:40:50.250Z,3.20
2022-09-18T02:43:55.649Z,3.20
2022-09-18T02:46:45.105Z,3.67
2022-09-18T02:49:39.623Z,3.50
2022-09-18T02:52:33.074Z,3.70
2022-09-18T02:55:22.702Z,4.10
2022-09-18T02:58:07.571Z,4.50
2022-09-18T03:00:42.624Z,4.70
2022-09-18T03:03:15.186Z,5.17
2022-09-18T03:05:42.622Z,4.30
2022-09-18T03:08:16.634Z,4.97
2022-09-18T03:10:44.002Z,4.77
2022-09-18T03:13:11.621Z,4.90
2022-09-18T03:15:45.738Z,4.87
2022-09-18T03:18:26.883Z,4.33
2022-09-18T03:21:00.617Z,4.60
2022-09-18T03:23:28.185Z,4.63
2022-09-18T03:25:55.621Z,4.50
2022-09-18T03:28:29.624Z,3.77
2022-09-18T03:30:56.996Z,4.33
2022-09-18T03:33:24.517Z,4.63
2022-09-18T03:35:58.632Z,5.70
2022-09-18T03:38:26.054Z,4.50
2022-09-18T03:40:53.437Z,4.70
2022-09-18T03:43:27.686Z,4.50
2022-09-18T03:45:55.061Z,5.53
2022-09-18T03:48:22.816Z,5.33
2022-09-18T03:50:56.630Z,4.53
2022-09-18T03:53:24.256Z,4.87
2022-09-18T03:55:54.184Z,4.30
2022-09-18T03:58:27.617Z,4.63
2022-09-18T04:00:55.553Z,5.50
2022-09-18T04:03:23.390Z,4.83
2022-09-18T04:05:57.670Z,6.03
2022-09-18T04:08:25.203Z,5.73
2022-09-18T04:10:52.828Z,5.33
2022-09-18T04:13:27.622Z,5.63
2022-09-18T04:16:15.699Z,5.80
2022-09-18T04:18:52.637Z,5.20
2022-09-18T04:21:20.065Z,7.30
2022-09-18T04:23:47.483Z,5.43
2022-09-18T04:26:21.656Z,5.00
2022-09-18T04:28:49.393Z,5.50
2022-09-18T04:31:17.040Z,5.37
2022-09-18T04:33:53.620Z,6.10
2022-09-18T04:36:21.102Z,6.07
2022-09-18T04:38:48.542Z,6.53
2022-09-18T04:41:22.625Z,7.30
2022-09-18T04:43:50.085Z,7.13
2022-09-18T04:46:17.576Z,7.60
2022-09-18T04:48:55.659Z,6.67
2022-09-18T04:51:23.058Z,6.87
2022-09-18T04:53:50.623Z,7.13
2022-09-18T04:56:24.673Z,6.77
2022-09-18T04:58:52.534Z,6.53
2022-09-18T05:01:20.023Z,7.17
2022-09-18T05:03:53.652Z,6.90
2022-09-18T05:06:21.040Z,6.13
2022-09-18T05:08:48.544Z,6.47
2022-09-18T05:11:22.659Z,6.50
2022-09-18T05:13:50.311Z,6.60
2022-09-18T05:16:37.763Z,6.77
2022-09-18T05:19:05.296Z,6.30
2022-09-18T05:21:32.656Z,6.47
2022-09-18T05:24:06.669Z,6.63
2022-09-18T05:26:34.743Z,7.33
2022-09-18T05:29:02.187Z,6.97
2022-09-18T05:31:35.714Z,6.17
2022-09-18T05:34:03.324Z,7.10
2022-09-18T05:36:30.754Z,6.73
2022-09-18T05:39:04.638Z,6.43
2022-09-18T05:41:31.980Z,6.17
2022-09-18T05:43:59.424Z,6.43
2022-09-18T05:46:33.715Z,6.60
2022-09-18T05:49:01.344Z,5.90
2022-09-18T05:51:28.777Z,5.60
2022-09-18T05:54:02.765Z,5.10
2022-09-18T05:56:31.877Z,5.07
2022-09-18T05:59:00.441Z,4.87
2022-09-18T06:01:43.617Z,5.50
2022-09-18T06:04:13.860Z,4.87
2022-09-18T06:06:49.779Z,5.07
2022-09-18T06:09:19.166Z,5.17
2022-09-18T06:11:46.987Z,4.87
2022-09-18T06:14:25.674Z,4.37
2022-09-18T06:17:16.098Z,3.97
2022-09-18T06:19:49.689Z,4.17
2022-09-18T06:22:17.487Z,4.03
2022-09-18T06:24:45.839Z,4.23
2022-09-18T06:27:19.695Z,3.63
2022-09-18T06:29:47.329Z,4.50
2022-09-18T06:32:15.086Z,4.20
2022-09-18T06:34:50.710Z,3.90
2022-09-18T06:37:18.660Z,3.87
2022-09-18T06:39:46.708Z,4.33
2022-09-18T06:42:22.718Z,3.63
2022-09-18T06:44:51.938Z,3.27
2022-09-18T06:47:19.562Z,3.50
2022-09-18T06:49:53.928Z,4.13
2022-09-18T06:52:22.862Z,3.47
2022-09-18T06:54:50.458Z,3.57
2022-09-18T06:57:24.738Z,3.17
2022-09-18T06:59:55.968Z,3.13
2022-09-18T07:02:24.777Z,3.30
2022-09-18T07:04:59.728Z,3.17
2022-09-18T07:07:27.757Z,3.50
2022-09-18T07:09:55.334Z,3.33
2022-09-18T07:12:29.754Z,4.60
2022-09-18T07:14:57.306Z,3.83
2022-09-18T07:17:45.668Z,3.87
2022-09-18T07:20:14.231Z,4.10
2022-09-18T07:22:47.027Z,4.30
2022-09-18T07:25:23.708Z,4.27
2022-09-18T07:27:51.410Z,4.63
2022-09-18T07:30:19.602Z,3.97
2022-09-18T07:32:54.717Z,3.70
2022-09-18T07:35:22.123Z,4.07
2022-09-18T07:37:50.626Z,4.10
2022-09-18T07:40:24.787Z,3.70
2022-09-18T07:42:52.311Z,3.80
2022-09-18T07:45:21.322Z,3.90
2022-09-18T07:47:55.706Z,4.00
2022-09-18T07:50:23.934Z,4.27
2022-09-18T07:53:06.737Z,4.70
2022-09-18T07:55:37.384Z,4.30
2022-09-18T07:58:13.690Z,5.20
2022-09-18T08:00:42.019Z,5.10
2022-09-18T08:03:12.098Z,5.10
2022-09-18T08:05:47.711Z,4.70
2022-09-18T08:08:16.553Z,4.60
2022-09-18T08:10:45.595Z,4.67
2022-09-18T08:13:20.814Z,4.50
2022-09-18T08:15:48.695Z,4.03
2022-09-18T08:18:29.860Z,3.73
2022-09-18T08:20:58.165Z,3.30
2022-09-18T08:23:25.922Z,3.73
2022-09-18T08:26:00.857Z,3.50
2022-09-18T08:28:28.421Z,2.67
2022-09-18T08:30:59.491Z,3.20
2022-09-18T08:33:33.756Z,3.43
2022-09-18T08:36:01.361Z,2.70
2022-09-18T08:38:28.888Z,2.90
2022-09-18T08:41:22.768Z,2.30
2022-09-18T08:44:04.223Z,2.57
2022-09-18T08:47:04.843Z,2.20
2022-09-18T08:49:46.267Z,2.10
2022-09-18T08:52:45.838Z,2.30
2022-09-18T08:55:19.197Z,2.17
2022-09-18T08:57:56.879Z,2.57
2022-09-18T09:00:27.102Z,2.10
2022-09-18T09:03:26.744Z,2.00
2022-09-18T09:06:00.206Z,2.40
2022-09-18T09:08:42.741Z,2.30
2022-09-18T09:11:41.799Z,2.00
2022-09-18T09:14:57.425Z,2.30
2022-09-18T09:17:40.871Z,2.20
2022-09-18T09:20:44.746Z,2.03
2022-09-18T09:23:28.623Z,2.03
2022-09-18T09:26:23.792Z,1.77
2022-09-18T09:29:01.332Z,1.83
2022-09-18T09:31:50.831Z,1.67
2022-09-18T09:34:34.777Z,1.57
2022-09-18T09:37:22.463Z,1.60
2022-09-18T09:40:08.238Z,1.80
2022-09-18T09:42:50.434Z,1.70
2022-09-18T09:45:35.917Z,1.77
2022-09-18T09:48:41.603Z,1.70
2022-09-18T09:51:32.534Z,1.50
2022-09-18T09:54:08.527Z,1.80
2022-09-18T09:56:59.892Z,1.45
2022-09-18T10:00:06.470Z,2.78
2022-09-18T10:03:07.218Z,1.20
2022-09-18T10:05:53.747Z,1.40
2022-09-18T10:08:50.208Z,1.48
2022-09-18T10:11:24.641Z,1.08
2022-09-18T10:14:18.020Z,1.65
2022-09-18T10:16:59.730Z,1.33
2022-09-18T10:19:40.421Z,1.23
2022-09-18T10:22:18.978Z,1.30
2022-09-18T10:25:13.409Z,1.80
2022-09-18T10:27:47.682Z,2.38
2022-09-18T10:30:16.304Z,1.05
2022-09-18T10:32:43.944Z,2.08
2022-09-18T10:35:36.736Z,1.50
2022-09-18T10:38:12.909Z,1.17
2022-09-18T10:40:47.774Z,0.95
2022-09-18T10:43:18.785Z,1.60
2022-09-18T10:45:59.712Z,1.25
2022-09-18T10:48:28.309Z,1.00
2022-09-18T10:51:12.729Z,1.27
2022-09-18T10:53:42.847Z,1.20
2022-09-18T10:56:26.997Z,1.08
2022-09-18T10:58:54.574Z,1.00
2022-09-18T11:01:25.411Z,1.13
2022-09-18T11:04:10.713Z,3.08
2022-09-18T11:06:43.376Z,1.27
2022-09-18T11:09:18.700Z,2.75
2022-09-18T11:11:51.592Z,1.52
2022-09-18T11:14:33.787Z,1.08
2022-09-18T11:17:09.857Z,1.20
2022-09-18T11:19:58.736Z,1.00
2022-09-18T11:22:47.134Z,1.05
2022-09-18T11:25:28.739Z,0.98
2022-09-18T11:27:59.229Z,0.70
2022-09-18T11:30:40.832Z,1.30
2022-09-18T11:33:24.687Z,1.00
2022-09-18T11:36:09.982Z,0.90
2022-09-18T11:38:46.731Z,0.90
2022-09-18T11:41:30.746Z,0.68
2022-09-18T11:44:29.157Z,0.93
2022-09-18T11:47:10.831Z,1.00
2022-09-18T11:49:49.814Z,2.03
2022-09-18T11:52:36.768Z,1.05
2022-09-18T11:55:32.595Z,1.67
2022-09-18T11:58:32.826Z,1.00
2022-09-18T12:01:14.718Z,1.20
2022-09-18T12:04:12.687Z,1.25
2022-09-18T12:07:10.907Z,1.15
2022-09-18T12:10:01.319Z,0.90
2022-09-18T12:12:59.417Z,1.40
2022-09-18T12:15:41.582Z,0.90
2022-09-18T12:18:25.725Z,0.80
2022-09-18T12:21:08.309Z,0.90
2022-09-18T12:23:36.614Z,0.80
2022-09-18T12:26:29.438Z,0.80
2022-09-18T12:29:16.126Z,0.95
2022-09-18T12:32:11.349Z,1.25
2022-09-18T12:34:58.351Z,4.03
2022-09-18T12:37:52.324Z,0.95
2022-09-18T12:40:30.759Z,8.35
2022-09-18T12:43:26.970Z,1.20
2022-09-18T12:46:14.169Z,4.65
2022-09-18T12:49:03.962Z,0.90
2022-09-18T12:51:43.261Z,1.50
2022-09-18T12:54:27.079Z,1.45
2022-09-18T12:57:04.734Z,1.95
2022-09-18T13:00:00.975Z,1.00
2022-09-18T13:02:59.701Z,2.28
2022-09-18T13:06:04.078Z,1.10
2022-09-18T13:08:48.157Z,0.68
2022-09-18T13:11:51.025Z,0.73
2022-09-18T13:14:18.516Z,1.00
2022-09-18T13:17:09.722Z,1.10
2022-09-18T13:20:01.166Z,1.38
2022-09-18T13:22:43.711Z,1.10
2022-09-18T13:25:32.692Z,1.20
2022-09-18T13:28:08.700Z,1.33
2022-09-18T13:30:36.641Z,1.10
2022-09-18T13:33:27.706Z,1.50
2022-09-18T13:35:59.092Z,2.22
2022-09-18T13:38:35.939Z,1.00
2022-09-18T13:41:06.379Z,0.98
2022-09-18T13:43:47.790Z,2.33
2022-09-18T13:46:32.293Z,2.80
2022-09-18T13:49:09.656Z,1.15
2022-09-18T13:51:37.632Z,1.50
2022-09-18T13:54:27.644Z,1.00
2022-09-18T13:57:05.031Z,1.42
2022-09-18T14:00:16.635Z,0.80
2022-09-18T14:02:44.460Z,1.00
2022-09-18T14:05:44.683Z,0.80
2022-09-18T14:08:24.501Z,1.27
2022-09-18T14:11:19.904Z,1.10
2022-09-18T14:14:10.414Z,1.17
2022-09-18T14:16:49.845Z,3.67
2022-09-18T14:19:40.442Z,4.85
2022-09-18T14:22:31.644Z,1.60
2022-09-18T14:25:06.238Z,0.80
2022-09-18T14:28:04.092Z,1.80
2022-09-18T14:30:32.559Z,4.38
2022-09-18T14:33:17.707Z,1.65
2022-09-18T14:36:00.502Z,2.63
2022-09-18T14:38:45.670Z,0.90
2022-09-18T14:41:24.912Z,9.18
2022-09-18T14:44:09.635Z,1.10
2022-09-18T14:46:53.110Z,1.40
2022-09-18T14:49:49.977Z,1.98
2022-09-18T14:52:26.477Z,1.60
2022-09-18T14:55:05.715Z,0.93
2022-09-18T14:57:45.634Z,0.80
2022-09-18T15:00:29.964Z,0.90
2022-09-18T15:03:01.161Z,0.90
2022-09-18T15:05:36.680Z,1.15
2022-09-18T15:08:36.645Z,1.00
2022-09-18T15:11:11.728Z,0.80
2022-09-18T15:13:40.547Z,1.17
2022-09-18T15:16:24.815Z,0.90
2022-09-18T15:18:52.358Z,2.65
2022-09-18T15:21:23.371Z,4.47
2022-09-18T15:23:57.688Z,7.30
2022-09-18T15:26:32.689Z,1.00
2022-09-18T15:29:08.800Z,2.00
2022-09-18T15:31:36.296Z,3.92
2022-09-18T15:34:18.689Z,2.20
2022-09-18T15:36:46.296Z,1.13
2022-09-18T15:39:40.958Z,1.05
2022-09-18T15:42:28.002Z,1.05
2022-09-18T15:45:07.787Z,0.88
2022-09-18T15:47:40.508Z,1.58
2022-09-18T15:50:21.750Z,1.02
2022-09-18T15:52:58.675Z,3.10
2022-09-18T15:55:39.854Z,2.30
2022-09-18T15:58:26.540Z,1.02
2022-09-18T16:01:09.765Z,1.10
2022-09-18T16:03:37.826Z,1.02
2022-09-18T16:06:08.689Z,1.00
2022-09-18T16:08:44.724Z,0.82
2022-09-18T16:11:36.952Z,0.80
2022-09-18T16:14:43.646Z,0.95
2022-09-18T16:17:36.461Z,0.90
2022-09-18T16:20:32.746Z,0.60
2022-09-18T16:23:13.616Z,1.00
2022-09-18T16:25:49.755Z,0.60
2022-09-18T16:28:25.329Z,2.80
2022-09-18T16:31:02.198Z,0.90
2022-09-18T16:33:34.046Z,1.10
2022-09-18T16:36:18.106Z,1.20
2022-09-18T16:38:45.852Z,1.02
2022-09-18T16:41:13.601Z,1.73
2022-09-18T16:43:48.129Z,2.35
2022-09-18T16:46:17.167Z,4.65
2022-09-18T16:48:46.541Z,1.70
2022-09-18T16:51:20.107Z,1.10
2022-09-18T16:53:47.539Z,0.90
2022-09-18T16:56:27.074Z,0.90
2022-09-18T16:58:56.663Z,0.93
2022-09-18T17:01:24.671Z,1.00
2022-09-18T17:03:59.098Z,2.00
2022-09-18T17:06:26.671Z,0.90
2022-09-18T17:09:15.068Z,0.82
2022-09-18T17:11:42.624Z,0.80
2022-09-18T17:14:15.158Z,1.20
2022-09-18T17:16:49.283Z,0.90
2022-09-18T17:19:20.751Z,1.30
2022-09-18T17:21:48.235Z,0.90
2022-09-18T17:24:24.085Z,1.00
2022-09-18T17:26:53.125Z,0.70
2022-09-18T17:29:21.548Z,1.08
2022-09-18T17:32:06.332Z,1.23
2022-09-18T17:34:37.747Z,1.38
2022-09-18T17:37:14.128Z,1.10
2022-09-18T17:40:02.290Z,1.20
2022-09-18T17:42:37.913Z,1.08
2022-09-18T17:45:06.645Z,1.20
2022-09-18T17:47:45.439Z,1.80
2022-09-18T17:50:15.986Z,0.93
2022-09-18T17:52:57.461Z,0.80
2022-09-18T17:55:25.274Z,1.45
2022-09-18T17:57:52.973Z,0.98
2022-09-18T18:00:27.545Z,1.27
2022-09-18T18:02:55.795Z,1.40
2022-09-18T18:05:24.468Z,1.50
2022-09-18T18:07:58.504Z,1.40
2022-09-18T18:10:26.627Z,1.50
2022-09-18T18:12:57.508Z,1.10
2022-09-18T18:15:31.487Z,2.40
2022-09-18T18:17:59.646Z,1.50
2022-09-18T18:20:27.153Z,3.70
2022-09-18T18:23:02.813Z,6.25
2022-09-18T18:25:35.083Z,1.10
2022-09-18T18:28:09.433Z,4.25
2022-09-18T18:30:36.979Z,1.27
2022-09-18T18:33:05.760Z,2.07
2022-09-18T18:35:40.563Z,1.15
2022-09-18T18:38:08.403Z,1.52
2022-09-18T18:40:38.062Z,1.45
2022-09-18T18:43:18.430Z,1.17
2022-09-18T18:45:56.549Z,1.35
2022-09-18T18:48:31.462Z,1.50
2022-09-18T18:51:05.688Z,1.50
2022-09-18T18:53:46.555Z,1.40
2022-09-18T18:56:16.947Z,1.53
2022-09-18T18:58:45.242Z,1.30
2022-09-18T19:01:22.591Z,1.30
2022-09-18T19:03:56.974Z,1.30
2022-09-18T19:06:33.550Z,1.20
2022-09-18T19:09:04.382Z,1.10
2022-09-18T19:11:40.505Z,1.20
2022-09-18T19:14:13.044Z,1.17
2022-09-18T19:17:02.777Z,1.10
2022-09-18T19:19:31.482Z,1.63
2022-09-18T19:22:01.016Z,1.40
2022-09-18T19:24:36.799Z,1.52
2022-09-18T19:27:04.346Z,1.10
2022-09-18T19:29:34.159Z,1.25
2022-09-18T19:32:08.504Z,1.00
2022-09-18T19:34:36.402Z,1.38
2022-09-18T19:37:08.539Z,1.35
2022-09-18T19:39:45.768Z,1.43
2022-09-18T19:42:15.101Z,1.00
2022-09-18T19:45:03.457Z,0.97
2022-09-18T19:47:48.474Z,1.48
2022-09-18T19:50:40.499Z,1.50
2022-09-18T19:53:08.784Z,1.20
2022-09-18T19:55:36.216Z,1.40
2022-09-18T19:58:15.248Z,1.10
2022-09-18T20:00:44.284Z,1.10
2022-09-18T20:03:23.780Z,1.00
2022-09-18T20:05:51.241Z,1.10
2022-09-18T20:11:09.732Z,2.07
2022-09-18T20:14:06.540Z,1.10
2022-09-18T20:19:25.465Z,1.17
2022-09-18T20:21:53.585Z,1.10
2022-09-18T20:24:21.103Z,1.10
2022-09-18T20:26:55.517Z,1.30
2022-09-18T20:29:23.008Z,1.20
2022-09-18T20:31:50.706Z,1.43
2022-09-18T20:34:28.462Z,1.37
2022-09-18T20:36:59.390Z,1.10
2022-09-18T20:39:27.362Z,1.30
2022-09-18T20:42:03.508Z,1.47
2022-09-18T20:44:35.171Z,1.30
2022-09-18T20:47:11.467Z,1.27
2022-09-18T20:49:40.130Z,1.27
2022-09-18T20:52:11.247Z,1.40
2022-09-18T20:54:50.047Z,1.33
2022-09-18T20:57:17.969Z,1.43
2022-09-18T20:59:45.384Z,1.50
2022-09-18T21:02:20.106Z,1.57
2022-09-18T21:04:52.360Z,1.33
2022-09-18T21:07:28.011Z,1.87
2022-09-18T21:09:58.230Z,1.73
2022-09-18T21:12:27.200Z,1.80
2022-09-18T21:15:01.363Z,1.70
2022-09-18T21:17:35.118Z,1.90
2022-09-18T21:20:17.054Z,1.70
2022-09-18T21:23:07.197Z,1.70
2022-09-18T21:25:42.109Z,1.60
2022-09-18T21:28:09.744Z,1.70
2022-09-18T21:30:40.102Z,2.33
2022-09-18T21:33:15.076Z,1.80
2022-09-18T21:35:53.284Z,1.80
2022-09-18T21:38:27.275Z,1.80
2022-09-18T21:40:55.248Z,1.70
2022-09-18T21:43:23.082Z,1.93
2022-09-18T21:45:57.236Z,1.57
2022-09-18T21:48:24.680Z,1.50
2022-09-18T21:50:52.359Z,1.90
2022-09-18T21:53:27.488Z,1.50
2022-09-18T21:56:04.373Z,1.80
2022-09-18T21:58:42.709Z,1.83
2022-09-18T22:04:54.070Z,1.70
2022-09-18T22:07:25.648Z,1.93
2022-09-18T22:09:52.993Z,1.90
2022-09-18T22:12:29.993Z,2.00
2022-09-18T22:14:57.626Z,1.93
2022-09-18T22:17:39.327Z,1.70
2022-09-18T22:20:16.315Z,1.87
2022-09-18T22:22:50.052Z,1.90
2022-09-18T22:25:20.511Z,1.97
2022-09-18T22:27:48.319Z,1.80
2022-09-18T22:30:23.108Z,2.17
2022-09-18T22:32:50.977Z,1.97
2022-09-18T22:35:21.432Z,2.27
2022-09-18T22:37:55.052Z,1.80
2022-09-18T22:40:22.637Z,2.07
2022-09-18T22:42:50.193Z,2.00
2022-09-18T22:45:25.009Z,2.13
2022-09-18T22:47:53.844Z,2.20
2022-09-18T22:50:22.540Z,2.10
2022-09-18T22:52:56.013Z,2.27
2022-09-18T22:55:23.456Z,1.90
2022-09-18T22:57:50.818Z,2.40
2022-09-18T23:00:25.056Z,2.40
2022-09-18T23:02:52.486Z,2.20
2022-09-18T23:05:19.854Z,2.10
2022-09-18T23:07:54.091Z,2.20
2022-09-18T23:10:21.647Z,1.80
2022-09-18T23:12:49.099Z,1.40
2022-09-18T23:15:23.083Z,0.87
2022-09-18T23:17:57.099Z,0.70
2022-09-18T23:20:38.032Z,0.70
2022-09-18T23:23:05.396Z,0.50
2022-09-18T23:25:37.335Z,0.53
2022-09-18T23:28:11.042Z,0.57
2022-09-18T23:30:38.378Z,0.20
2022-09-18T23:33:05.834Z,0.20
2022-09-18T23:35:40.052Z,0.30
2022-09-18T23:38:07.427Z,0.20
2022-09-18T23:40:35.777Z,0.20
2022-09-18T23:43:10.028Z,0.47
2022-09-18T23:45:37.647Z,0.20
2022-09-18T23:48:05.111Z,0.20
2022-09-18T23:50:42.800Z,0.30
2022-09-18T23:53:10.104Z,0.50
2022-09-18T23:55:37.423Z,0.50
2022-09-18T23:58:11.788Z,1.10
